Willow, Pennsylvania
Current Conditions -  °F | °C
As of 9:53 AM on Wednesday 22 Oct 2014 (Local Time) from KLNS Reporting Station
Light Rain Light Rain  
Wind Chill: 53°   Ceiling: 2100
Heat Index: 53°   Visibility: 10mi
Dew Point: 50°   Wind: 9mph
Humidity: 89%   Direction: 350°N
Pressure: 29.94"   Gusts: NA
Location:  39.9601°N, 76.2683°W
Report Text: KLNS 221353Z 35008KT 10SM -RA OVC021 12/10 A2994 RMK AO2 SLP137 P0002 T01170100
Loading
Personal Weather Stations






























Interactive Weather Map
Tropical Storm Tracking
New forecast layout! Learn more

10-Day Weather Forecast

Advertisements
Track Severe Weather on mobile